createdAt,value
2022-09-26T00:03:02.195Z,46.83
2022-09-26T00:08:08.956Z,45.10
2022-09-26T00:13:14.262Z,45.03
2022-09-26T00:18:21.440Z,41.03
2022-09-26T00:23:26.537Z,44.60
2022-09-26T00:28:32.091Z,42.47
2022-09-26T00:33:37.678Z,52.63
2022-09-26T00:38:43.065Z,42.93
2022-09-26T00:43:53.785Z,39.57
2022-09-26T00:49:02.080Z,43.03
2022-09-26T00:54:11.674Z,38.03
2022-09-26T00:59:31.558Z,43.53
2022-09-26T01:04:39.749Z,43.83
2022-09-26T01:09:45.795Z,43.47
2022-09-26T01:14:53.610Z,39.37
2022-09-26T01:20:11.521Z,42.10
2022-09-26T01:25:35.173Z,38.73
2022-09-26T01:30:49.778Z,37.47
2022-09-26T01:36:03.813Z,38.90
2022-09-26T01:41:17.247Z,38.93
2022-09-26T01:46:33.743Z,37.27
2022-09-26T01:51:41.924Z,36.23
2022-09-26T01:56:49.252Z,39.50
2022-09-26T02:01:57.780Z,38.40
2022-09-26T02:07:11.916Z,40.43
2022-09-26T02:12:23.204Z,33.33
2022-09-26T02:17:31.361Z,32.20
2022-09-26T02:22:37.134Z,37.23
2022-09-26T02:27:42.526Z,33.97
2022-09-26T02:32:47.824Z,33.57
2022-09-26T02:37:53.031Z,39.03
2022-09-26T02:43:25.259Z,35.13
2022-09-26T02:48:39.496Z,36.03
2022-09-26T02:53:59.765Z,37.40
2022-09-26T02:59:26.980Z,37.53
2022-09-26T03:04:37.836Z,39.90
2022-09-26T03:09:44.476Z,37.87
2022-09-26T03:14:54.142Z,43.83
2022-09-26T03:20:10.900Z,44.63
2022-09-26T03:25:24.511Z,46.00
2022-09-26T03:30:31.055Z,39.80
2022-09-26T03:35:36.427Z,45.77
2022-09-26T03:40:42.418Z,44.13
2022-09-26T03:45:48.019Z,38.03
2022-09-26T03:50:53.519Z,39.93
2022-09-26T03:56:07.457Z,45.70
2022-09-26T04:01:18.458Z,44.90
2022-09-26T04:06:23.880Z,43.00
2022-09-26T04:11:29.351Z,44.17
2022-09-26T04:16:36.380Z,38.93
2022-09-26T04:21:57.224Z,45.13
2022-09-26T04:27:10.731Z,39.47
2022-09-26T04:32:17.796Z,42.77
2022-09-26T04:37:23.832Z,40.77
2022-09-26T04:42:29.154Z,40.83
2022-09-26T04:47:34.502Z,42.17
2022-09-26T04:52:39.861Z,44.47
2022-09-26T04:57:45.628Z,49.53
2022-09-26T05:02:50.828Z,48.80
2022-09-26T05:07:56.192Z,60.43
2022-09-26T05:13:03.329Z,47.23
2022-09-26T05:18:11.435Z,49.00
2022-09-26T05:23:20.798Z,47.20
2022-09-26T05:28:27.854Z,54.00
2022-09-26T05:33:33.272Z,45.93
2022-09-26T05:38:50.546Z,44.33
2022-09-26T05:44:20.943Z,46.80
2022-09-26T05:49:27.981Z,47.93
2022-09-26T05:54:33.647Z,44.70
2022-09-26T05:59:40.214Z,49.07
2022-09-26T06:04:45.644Z,46.90
2022-09-26T06:09:53.698Z,43.47
2022-09-26T06:15:00.112Z,50.90
2022-09-26T06:20:09.726Z,51.30
2022-09-26T06:25:15.133Z,37.80
2022-09-26T06:30:22.438Z,47.97
2022-09-26T06:35:27.936Z,46.10
2022-09-26T06:40:33.986Z,54.40
2022-09-26T06:45:41.171Z,50.70
2022-09-26T06:50:46.545Z,51.17
2022-09-26T06:55:51.860Z,57.47
2022-09-26T07:00:57.395Z,56.00
2022-09-26T07:06:03.598Z,53.80
2022-09-26T07:11:31.202Z,55.50
2022-09-26T07:16:16.260Z,58.20
2022-09-26T07:21:21.753Z,66.63
2022-09-26T07:26:27.178Z,59.43
2022-09-26T07:31:32.598Z,53.10
2022-09-26T07:36:39.886Z,47.20
2022-09-26T07:41:46.969Z,46.67
2022-09-26T07:47:10.363Z,41.23
2022-09-26T07:52:17.747Z,41.60
2022-09-26T07:57:35.197Z,37.40
2022-09-26T08:02:57.479Z,35.97
2022-09-26T08:08:09.412Z,34.47
2022-09-26T08:13:16.554Z,34.10
2022-09-26T08:18:23.782Z,35.87
2022-09-26T08:23:36.658Z,32.93
2022-09-26T08:28:59.133Z,39.17
2022-09-26T09:03:26.967Z,33.73
2022-09-26T09:09:02.133Z,35.53
2022-09-26T09:15:13.728Z,29.67
2022-09-26T09:31:35.622Z,27.10
2022-09-26T09:36:57.242Z,28.40
2022-09-26T09:42:23.027Z,27.90
2022-09-26T09:47:45.171Z,32.83
2022-09-26T09:53:21.325Z,27.77
2022-09-26T10:21:58.977Z,30.07
2022-09-26T10:27:28.407Z,31.10
2022-09-26T10:32:52.894Z,31.23
2022-09-26T10:38:05.068Z,26.77
2022-09-26T10:43:32.031Z,29.43
2022-09-26T10:48:49.065Z,23.53
2022-09-26T10:53:57.462Z,24.73
2022-09-26T10:59:04.593Z,28.10
2022-09-26T11:04:17.785Z,22.37
2022-09-26T11:09:23.250Z,21.50
2022-09-26T11:14:29.712Z,20.90
2022-09-26T11:19:42.469Z,19.43
2022-09-26T11:25:06.466Z,21.10
2022-09-26T11:30:21.296Z,22.33
2022-09-26T11:35:35.840Z,15.93
2022-09-26T11:46:30.331Z,14.17
2022-09-26T11:51:59.706Z,15.17
2022-09-26T11:57:34.426Z,18.00
2022-09-26T12:03:00.818Z,14.83
2022-09-26T12:08:21.926Z,14.40
2022-09-26T12:13:41.201Z,15.43
2022-09-26T12:19:16.318Z,11.63
2022-09-26T12:24:26.999Z,12.55
2022-09-26T12:29:46.274Z,10.27
2022-09-26T12:35:14.017Z,9.60
2022-09-26T12:40:58.296Z,11.53
2022-09-26T12:46:27.695Z,13.10
2022-09-26T12:52:26.571Z,11.47
2022-09-26T12:57:56.267Z,13.47
2022-09-26T13:03:16.498Z,10.50
2022-09-26T13:08:47.411Z,27.50
2022-09-26T13:14:15.643Z,10.10
2022-09-26T13:25:53.808Z,10.33
2022-09-26T13:31:32.703Z,9.07
2022-09-26T13:48:47.497Z,17.23
2022-09-26T13:54:20.405Z,75.90
2022-09-26T13:59:44.656Z,18.00
2022-09-26T14:05:10.277Z,9.43
2022-09-26T14:22:39.438Z,102.93
2022-09-26T14:28:24.193Z,57.63
2022-09-26T14:33:58.792Z,30.70
2022-09-26T14:39:09.619Z,18.27
2022-09-26T14:44:19.575Z,12.17
2022-09-26T14:49:28.867Z,8.37
2022-09-26T14:54:43.765Z,9.63
2022-09-26T14:59:50.365Z,10.07
2022-09-26T15:05:07.210Z,9.87
2022-09-26T15:10:27.202Z,7.70
2022-09-26T15:15:44.310Z,14.37
2022-09-26T15:20:52.785Z,12.23
2022-09-26T15:26:05.056Z,18.27
2022-09-26T15:37:21.621Z,25.93
2022-09-26T15:42:48.165Z,26.83
2022-09-26T15:47:57.794Z,52.10
2022-09-26T15:53:29.318Z,52.33
2022-09-26T15:58:49.868Z,80.57
2022-09-26T16:04:16.097Z,91.83
2022-09-26T16:09:43.693Z,87.47
2022-09-26T16:20:33.378Z,42.00
2022-09-26T16:26:06.711Z,32.50
2022-09-26T16:31:21.780Z,33.27
2022-09-26T16:36:35.019Z,31.03
2022-09-26T16:42:02.715Z,65.50
2022-09-26T16:47:01.932Z,83.20
2022-09-26T16:52:29.657Z,91.07
2022-09-26T16:57:53.454Z,106.00
2022-09-26T17:08:33.611Z,147.70
2022-09-26T17:13:53.337Z,93.03
2022-09-26T17:18:58.373Z,76.07
2022-09-26T17:24:30.837Z,79.43
2022-09-26T17:29:59.348Z,56.23
2022-09-26T17:35:29.581Z,59.13
2022-09-26T17:46:45.684Z,31.87
2022-09-26T17:52:30.279Z,54.70
2022-09-26T17:57:41.751Z,58.23
2022-09-26T18:03:10.281Z,68.57
2022-09-26T18:08:39.779Z,59.70
2022-09-26T18:14:14.891Z,76.50
2022-09-26T18:19:26.839Z,65.80
2022-09-26T18:24:42.205Z,59.83
2022-09-26T18:29:59.689Z,47.70
2022-09-26T18:35:45.737Z,35.60
2022-09-26T18:40:59.674Z,28.47
2022-09-26T18:46:30.288Z,27.30
2022-09-26T18:52:00.548Z,25.67
2022-09-26T18:57:31.049Z,24.73
2022-09-26T19:02:39.732Z,19.07
2022-09-26T19:07:45.381Z,16.50
2022-09-26T19:12:51.872Z,19.10
2022-09-26T19:18:03.881Z,19.13
2022-09-26T19:23:13.529Z,17.73
2022-09-26T19:28:22.382Z,22.13
2022-09-26T19:33:48.445Z,31.90
2022-09-26T19:38:53.815Z,21.83
2022-09-26T19:44:00.536Z,21.10
2022-09-26T19:49:09.220Z,20.80
2022-09-26T19:54:25.699Z,16.33
2022-09-26T19:59:35.959Z,22.73
2022-09-26T20:05:05.104Z,17.00
2022-09-26T20:10:24.124Z,19.57
2022-09-26T20:15:49.769Z,24.00
2022-09-26T20:21:04.084Z,31.73
2022-09-26T20:26:26.413Z,25.27
2022-09-26T20:31:35.389Z,21.93
2022-09-26T20:36:50.909Z,25.57
2022-09-26T20:53:35.629Z,22.50
2022-09-26T20:59:13.671Z,24.67
2022-09-26T21:04:24.505Z,28.63
2022-09-26T21:09:29.874Z,30.63
2022-09-26T21:20:31.335Z,30.63
2022-09-26T21:25:55.051Z,50.40
2022-09-26T21:31:18.145Z,19.77
2022-09-26T21:36:46.570Z,24.80
2022-09-26T21:41:59.165Z,32.07
2022-09-26T21:53:05.745Z,34.27
2022-09-26T21:58:50.583Z,17.67
2022-09-26T22:03:59.804Z,17.60
2022-09-26T22:14:34.315Z,23.07
2022-09-26T22:19:42.933Z,29.43
2022-09-26T22:24:55.607Z,53.97
2022-09-26T22:30:09.238Z,41.30
2022-09-26T22:35:19.381Z,33.47
2022-09-26T22:40:28.231Z,29.70
2022-09-26T22:45:53.346Z,21.03
2022-09-26T22:51:06.798Z,25.13
2022-09-26T22:56:20.129Z,19.30
2022-09-26T23:01:32.167Z,19.33
2022-09-26T23:06:43.872Z,16.37
2022-09-26T23:11:49.301Z,18.90
2022-09-26T23:17:13.956Z,34.97
2022-09-26T23:22:22.966Z,41.43
2022-09-26T23:27:50.564Z,31.83
2022-09-26T23:32:55.882Z,37.77
2022-09-26T23:38:05.293Z,34.67
2022-09-26T23:43:20.055Z,34.90
2022-09-26T23:48:26.946Z,31.40
2022-09-26T23:53:34.204Z,36.27
2022-09-26T23:59:02.120Z,27.33
